Fruita, CO

4:46 AM MDT on August 21, 2014 (GMT -0600)
Garfield County Regional | Change Station
CLOSE
Current Station
Airport
Location: Rifle,
Elevation: 5541 ft
Nearby Weather Stations

Elev 5541 ft 39.52 °N, 107.73 °W | Updated 53 minutes ago

Mostly Cloudy
Mostly Cloudy
57 °F
Feels Like 57 °F
N
4
Wind Variable Wind from East

Today
High -- | Low -- °F
--% Chance of Precip.
Yesterday
High -- | Low -- °F
Precip. -- in
6:33 AM 8:01 PM
Waning Crescent, 15% visible
Pressure 29.96 in
Visibility 10.0 miles
Clouds Mostly Cloudy 9500 ft
Dew Point 52 °F
Humidity 83%
Rainfall 0.00 in
Snow Depth Not available.
UV 0 out of 12
Pollen 5.60 out of 12
Air Quality Not available.
Flu Activity Not available.
METAR KRIL 210953Z AUTO 09003KT 10SM BKN095 14/11 A3015 RMK AO2 SLP145 T01390111

More Conditions Fewer Conditions

Pressure 29.96 in
Visibility 10.0 miles
Clouds Mostly Cloudy 9500 ft
Dew Point 52 °F
Humidity 83%
Rainfall 0.00 in
Snow Depth Not available.
UV 0 out of 12
Pollen 5.60 out of 12
Air Quality Not available.
Flu Activity Not available.
METAR KRIL 210953Z AUTO 09003KT 10SM BKN095 14/11 A3015 RMK AO2 SLP145 T01390111

More Conditions Fewer Conditions

10-Day Weather Forecast

Almanac

Astronomy

Aug. 21, 2014 Rise Set
Actual Time 6:33 AM MDT 8:01 PM MDT
Civil Twilight 6:05 AM MDT 8:29 PM MDT
Nautical Twilight 5:31 AM MDT 9:03 PM MDT
Astronomical Twilight 4:55 AM MDT 9:39 PM MDT
Moon 3:07 AM MDT 5:32 PM MDT
Length of Visible Light 14h 24m
Length of Day
13h 28m
Tomorrow will be 2m 21s shorter.
Waning Crescent, 15% of the Moon is Illuminated
Today
Waning Crescent
Aug 25
New
Sep 2
First Quarter
Sep 8
Full
Sep 15
Last Quarter

Today's Extremes

State Highs State Lows

Community

WunderPhotos

Upload Photos

1,745,871 photos uploaded!

Nearby

Snow Depth

Station Depth Elevation
Mesa Lakes 0 in 10000 ft
Park Reservoir 0 in 9960 ft
Columbine Pass 1 in 9400 ft
Overland Reservoir 0 in 9880 ft
McClure Pass 1 in 9500 ft

Earthquake Activity

City Distance Mag. Time & Date
No recent earthquake activity has been reported nearby.
Minimum magnitude displayed is 2.5.

Coastal Water Temperatures

Place Temperature
No Stations Reporting

Nearby Weather Stations